sensor_id;sensor_type;location;lat;lon;timestamp;temperature;humidity
36552;DHT22;22559;54.176;12.102;2023-08-06T00:00:04;16.00;99.90
36552;DHT22;22559;54.176;12.102;2023-08-06T00:02:30;16.10;99.90
36552;DHT22;22559;54.176;12.102;2023-08-06T00:04:56;16.10;99.90
36552;DHT22;22559;54.176;12.102;2023-08-06T00:07:22;16.10;99.90
36552;DHT22;22559;54.176;12.102;2023-08-06T00:09:48;16.10;99.90
36552;DHT22;22559;54.176;12.102;2023-08-06T00:12:13;16.20;99.90
36552;DHT22;22559;54.176;12.102;2023-08-06T00:14:39;16.30;99.90
36552;DHT22;22559;54.176;12.102;2023-08-06T00:17:04;16.30;99.90
36552;DHT22;22559;54.176;12.102;2023-08-06T00:19:31;16.30;99.90
36552;DHT22;22559;54.176;12.102;2023-08-06T00:21:57;16.40;99.90
36552;DHT22;22559;54.176;12.102;2023-08-06T00:24:23;16.40;99.90
36552;DHT22;22559;54.176;12.102;2023-08-06T00:26:48;16.40;99.90
36552;DHT22;22559;54.176;12.102;2023-08-06T00:29:14;16.40;99.90
36552;DHT22;22559;54.176;12.102;2023-08-06T00:31:39;16.50;99.90
36552;DHT22;22559;54.176;12.102;2023-08-06T00:34:05;16.40;99.90
36552;DHT22;22559;54.176;12.102;2023-08-06T00:36:31;16.40;99.90
36552;DHT22;22559;54.176;12.102;2023-08-06T00:38:56;16.40;99.90
36552;DHT22;22559;54.176;12.102;2023-08-06T00:41:22;16.40;99.90
36552;DHT22;22559;54.176;12.102;2023-08-06T00:43:48;16.40;99.90
36552;DHT22;22559;54.176;12.102;2023-08-06T00:46:13;16.40;99.90
36552;DHT22;22559;54.176;12.102;2023-08-06T00:48:41;16.40;99.90
36552;DHT22;22559;54.176;12.102;2023-08-06T00:51:09;16.40;99.90
36552;DHT22;22559;54.176;12.102;2023-08-06T00:53:37;16.40;99.90
36552;DHT22;22559;54.176;12.102;2023-08-06T00:56:03;16.40;99.90
36552;DHT22;22559;54.176;12.102;2023-08-06T00:58:29;16.40;99.90
36552;DHT22;22559;54.176;12.102;2023-08-06T01:00:54;16.40;99.90
36552;DHT22;22559;54.176;12.102;2023-08-06T01:03:20;16.40;99.90
36552;DHT22;22559;54.176;12.102;2023-08-06T01:05:46;16.40;99.90
36552;DHT22;22559;54.176;12.102;2023-08-06T01:08:35;16.40;99.90
36552;DHT22;22559;54.176;12.102;2023-08-06T01:13:48;16.40;99.90
36552;DHT22;22559;54.176;12.102;2023-08-06T01:16:18;16.40;99.90
36552;DHT22;22559;54.176;12.102;2023-08-06T01:18:44;16.30;99.90
36552;DHT22;22559;54.176;12.102;2023-08-06T01:21:18;16.30;99.90
36552;DHT22;22559;54.176;12.102;2023-08-06T01:23:45;16.30;99.90
36552;DHT22;22559;54.176;12.102;2023-08-06T01:26:36;16.30;99.90
36552;DHT22;22559;54.176;12.102;2023-08-06T01:31:39;16.30;99.90
36552;DHT22;22559;54.176;12.102;2023-08-06T01:34:10;16.30;99.90
36552;DHT22;22559;54.176;12.102;2023-08-06T01:36:39;16.40;99.90
36552;DHT22;22559;54.176;12.102;2023-08-06T01:39:05;16.40;99.90
36552;DHT22;22559;54.176;12.102;2023-08-06T01:41:31;16.30;99.90
36552;DHT22;22559;54.176;12.102;2023-08-06T01:43:56;16.30;99.90
36552;DHT22;22559;54.176;12.102;2023-08-06T01:46:22;16.30;99.90
36552;DHT22;22559;54.176;12.102;2023-08-06T01:48:48;16.30;99.90
36552;DHT22;22559;54.176;12.102;2023-08-06T01:51:13;16.20;99.90
36552;DHT22;22559;54.176;12.102;2023-08-06T01:53:39;16.20;99.90
36552;DHT22;22559;54.176;12.102;2023-08-06T01:56:05;16.10;99.90
36552;DHT22;22559;54.176;12.102;2023-08-06T01:58:30;16.20;99.90
36552;DHT22;22559;54.176;12.102;2023-08-06T02:00:56;16.10;99.90
36552;DHT22;22559;54.176;12.102;2023-08-06T02:03:21;16.10;99.90
36552;DHT22;22559;54.176;12.102;2023-08-06T02:05:47;16.00;99.90
36552;DHT22;22559;54.176;12.102;2023-08-06T02:08:13;16.00;99.90
36552;DHT22;22559;54.176;12.102;2023-08-06T02:10:38;16.00;99.90
36552;DHT22;22559;54.176;12.102;2023-08-06T02:13:04;15.90;99.90
36552;DHT22;22559;54.176;12.102;2023-08-06T02:15:29;15.90;99.90
36552;DHT22;22559;54.176;12.102;2023-08-06T02:17:55;15.80;99.90
36552;DHT22;22559;54.176;12.102;2023-08-06T02:20:21;15.80;99.90
36552;DHT22;22559;54.176;12.102;2023-08-06T02:22:46;15.80;99.90
36552;DHT22;22559;54.176;12.102;2023-08-06T02:25:12;15.70;99.90
36552;DHT22;22559;54.176;12.102;2023-08-06T02:27:37;15.70;99.90
36552;DHT22;22559;54.176;12.102;2023-08-06T02:30:04;15.70;99.90
36552;DHT22;22559;54.176;12.102;2023-08-06T02:32:30;15.60;99.90
36552;DHT22;22559;54.176;12.102;2023-08-06T02:34:57;15.60;99.90
36552;DHT22;22559;54.176;12.102;2023-08-06T02:37:22;15.70;99.90
36552;DHT22;22559;54.176;12.102;2023-08-06T02:39:48;15.60;99.90
36552;DHT22;22559;54.176;12.102;2023-08-06T02:42:14;15.50;99.90
36552;DHT22;22559;54.176;12.102;2023-08-06T02:44:39;15.50;99.90
36552;DHT22;22559;54.176;12.102;2023-08-06T02:47:05;15.50;99.90
36552;DHT22;22559;54.176;12.102;2023-08-06T02:49:31;15.50;99.90
36552;DHT22;22559;54.176;12.102;2023-08-06T02:51:56;15.60;99.90
36552;DHT22;22559;54.176;12.102;2023-08-06T02:54:22;15.50;99.90
36552;DHT22;22559;54.176;12.102;2023-08-06T02:56:47;15.50;99.90
36552;DHT22;22559;54.176;12.102;2023-08-06T02:59:13;15.60;99.90
36552;DHT22;22559;54.176;12.102;2023-08-06T03:01:39;15.60;99.90
36552;DHT22;22559;54.176;12.102;2023-08-06T03:04:05;15.70;99.90
36552;DHT22;22559;54.176;12.102;2023-08-06T03:06:31;15.80;99.90
36552;DHT22;22559;54.176;12.102;2023-08-06T03:08:57;15.70;99.90
36552;DHT22;22559;54.176;12.102;2023-08-06T03:11:22;15.80;99.90
36552;DHT22;22559;54.176;12.102;2023-08-06T03:13:48;15.80;99.90
36552;DHT22;22559;54.176;12.102;2023-08-06T03:16:14;15.70;99.90
36552;DHT22;22559;54.176;12.102;2023-08-06T03:18:40;15.70;99.90
36552;DHT22;22559;54.176;12.102;2023-08-06T03:21:05;15.70;99.90
36552;DHT22;22559;54.176;12.102;2023-08-06T03:23:31;15.60;99.90
36552;DHT22;22559;54.176;12.102;2023-08-06T03:26:01;15.60;99.90
36552;DHT22;22559;54.176;12.102;2023-08-06T03:28:27;15.60;99.90
36552;DHT22;22559;54.176;12.102;2023-08-06T03:31:02;15.60;99.90
36552;DHT22;22559;54.176;12.102;2023-08-06T03:33:29;15.60;99.90
36552;DHT22;22559;54.176;12.102;2023-08-06T03:35:54;15.50;99.90
36552;DHT22;22559;54.176;12.102;2023-08-06T03:38:20;15.60;99.90
36552;DHT22;22559;54.176;12.102;2023-08-06T03:40:46;15.60;99.90
36552;DHT22;22559;54.176;12.102;2023-08-06T03:43:12;15.60;99.90
36552;DHT22;22559;54.176;12.102;2023-08-06T03:45:38;15.50;99.90
36552;DHT22;22559;54.176;12.102;2023-08-06T03:48:03;15.50;99.90
36552;DHT22;22559;54.176;12.102;2023-08-06T03:50:30;15.50;99.90
36552;DHT22;22559;54.176;12.102;2023-08-06T03:52:56;15.50;99.90
36552;DHT22;22559;54.176;12.102;2023-08-06T03:55:21;15.50;99.90
36552;DHT22;22559;54.176;12.102;2023-08-06T03:57:47;15.50;99.90
36552;DHT22;22559;54.176;12.102;2023-08-06T04:00:13;15.50;99.90
36552;DHT22;22559;54.176;12.102;2023-08-06T04:02:39;15.50;99.90
36552;DHT22;22559;54.176;12.102;2023-08-06T04:05:04;15.50;99.90
36552;DHT22;22559;54.176;12.102;2023-08-06T04:07:30;15.60;99.90
36552;DHT22;22559;54.176;12.102;2023-08-06T04:10:00;15.60;99.90
36552;DHT22;22559;54.176;12.102;2023-08-06T04:12:27;15.70;99.90
36552;DHT22;22559;54.176;12.102;2023-08-06T04:14:53;15.70;99.90
36552;DHT22;22559;54.176;12.102;2023-08-06T04:17:20;15.70;99.90
36552;DHT22;22559;54.176;12.102;2023-08-06T04:19:55;15.70;99.90
36552;DHT22;22559;54.176;12.102;2023-08-06T04:22:23;15.70;99.90
36552;DHT22;22559;54.176;12.102;2023-08-06T04:24:49;15.70;99.90
36552;DHT22;22559;54.176;12.102;2023-08-06T04:27:15;15.70;99.90
36552;DHT22;22559;54.176;12.102;2023-08-06T04:29:42;15.70;99.90
36552;DHT22;22559;54.176;12.102;2023-08-06T04:32:09;15.70;99.90
36552;DHT22;22559;54.176;12.102;2023-08-06T04:34:36;15.70;99.90
36552;DHT22;22559;54.176;12.102;2023-08-06T04:37:03;15.70;99.90
36552;DHT22;22559;54.176;12.102;2023-08-06T04:39:29;15.70;99.90
36552;DHT22;22559;54.176;12.102;2023-08-06T04:41:58;15.70;99.90
36552;DHT22;22559;54.176;12.102;2023-08-06T04:44:24;15.70;99.90
36552;DHT22;22559;54.176;12.102;2023-08-06T04:46:50;15.70;99.90
36552;DHT22;22559;54.176;12.102;2023-08-06T04:49:16;15.80;99.90
36552;DHT22;22559;54.176;12.102;2023-08-06T04:51:42;15.80;99.90
36552;DHT22;22559;54.176;12.102;2023-08-06T04:54:07;15.80;99.90
36552;DHT22;22559;54.176;12.102;2023-08-06T04:56:33;15.80;99.90
36552;DHT22;22559;54.176;12.102;2023-08-06T04:58:59;15.80;99.90
36552;DHT22;22559;54.176;12.102;2023-08-06T05:01:25;15.80;99.90
36552;DHT22;22559;54.176;12.102;2023-08-06T05:03:50;15.90;99.90
36552;DHT22;22559;54.176;12.102;2023-08-06T05:06:16;15.90;99.90
36552;DHT22;22559;54.176;12.102;2023-08-06T05:08:42;16.00;99.90
36552;DHT22;22559;54.176;12.102;2023-08-06T05:11:09;16.10;99.90
36552;DHT22;22559;54.176;12.102;2023-08-06T05:13:34;16.10;99.90
36552;DHT22;22559;54.176;12.102;2023-08-06T05:16:00;16.10;99.90
36552;DHT22;22559;54.176;12.102;2023-08-06T05:18:26;16.10;99.90
36552;DHT22;22559;54.176;12.102;2023-08-06T05:20:51;16.20;99.90
36552;DHT22;22559;54.176;12.102;2023-08-06T05:23:17;16.20;99.90
36552;DHT22;22559;54.176;12.102;2023-08-06T05:25:43;16.20;99.90
36552;DHT22;22559;54.176;12.102;2023-08-06T05:28:08;16.30;99.90
36552;DHT22;22559;54.176;12.102;2023-08-06T05:30:38;16.40;99.90
36552;DHT22;22559;54.176;12.102;2023-08-06T05:33:04;16.40;99.90
36552;DHT22;22559;54.176;12.102;2023-08-06T05:35:29;16.40;99.90
36552;DHT22;22559;54.176;12.102;2023-08-06T05:37:55;16.40;99.90
36552;DHT22;22559;54.176;12.102;2023-08-06T05:40:20;16.50;99.90
36552;DHT22;22559;54.176;12.102;2023-08-06T05:42:46;16.50;99.90
36552;DHT22;22559;54.176;12.102;2023-08-06T05:45:11;16.50;99.90
36552;DHT22;22559;54.176;12.102;2023-08-06T05:47:37;16.50;99.90
36552;DHT22;22559;54.176;12.102;2023-08-06T05:50:03;16.50;99.90
36552;DHT22;22559;54.176;12.102;2023-08-06T05:52:29;16.60;99.90
36552;DHT22;22559;54.176;12.102;2023-08-06T05:54:54;16.60;99.90
36552;DHT22;22559;54.176;12.102;2023-08-06T05:57:20;16.70;99.90
36552;DHT22;22559;54.176;12.102;2023-08-06T05:59:46;16.80;99.90
36552;DHT22;22559;54.176;12.102;2023-08-06T06:02:11;16.80;99.90
36552;DHT22;22559;54.176;12.102;2023-08-06T06:04:37;16.90;99.90
36552;DHT22;22559;54.176;12.102;2023-08-06T06:07:03;16.90;99.90
36552;DHT22;22559;54.176;12.102;2023-08-06T06:09:29;17.00;99.90
36552;DHT22;22559;54.176;12.102;2023-08-06T06:11:54;17.10;99.90
36552;DHT22;22559;54.176;12.102;2023-08-06T06:14:20;17.10;99.90
36552;DHT22;22559;54.176;12.102;2023-08-06T06:16:45;17.10;99.90
36552;DHT22;22559;54.176;12.102;2023-08-06T06:19:12;17.20;99.90
36552;DHT22;22559;54.176;12.102;2023-08-06T06:21:38;17.20;99.90
36552;DHT22;22559;54.176;12.102;2023-08-06T06:24:06;17.20;99.90
36552;DHT22;22559;54.176;12.102;2023-08-06T06:26:33;17.30;99.90
36552;DHT22;22559;54.176;12.102;2023-08-06T06:28:59;17.30;99.90
36552;DHT22;22559;54.176;12.102;2023-08-06T06:31:25;17.30;99.90
36552;DHT22;22559;54.176;12.102;2023-08-06T06:33:50;17.40;99.90
36552;DHT22;22559;54.176;12.102;2023-08-06T06:36:18;17.40;99.90
36552;DHT22;22559;54.176;12.102;2023-08-06T06:38:44;17.40;99.90
36552;DHT22;22559;54.176;12.102;2023-08-06T06:41:09;17.40;99.90
36552;DHT22;22559;54.176;12.102;2023-08-06T06:43:35;17.50;99.90
36552;DHT22;22559;54.176;12.102;2023-08-06T06:46:03;17.50;99.90
36552;DHT22;22559;54.176;12.102;2023-08-06T06:48:30;17.60;99.90
36552;DHT22;22559;54.176;12.102;2023-08-06T06:50:56;17.60;99.90
36552;DHT22;22559;54.176;12.102;2023-08-06T06:53:22;17.70;99.90
36552;DHT22;22559;54.176;12.102;2023-08-06T06:58:20;17.90;99.90
36552;DHT22;22559;54.176;12.102;2023-08-06T07:00:47;18.00;99.90
36552;DHT22;22559;54.176;12.102;2023-08-06T07:03:13;18.00;99.90
36552;DHT22;22559;54.176;12.102;2023-08-06T07:05:39;18.10;99.90
36552;DHT22;22559;54.176;12.102;2023-08-06T07:08:05;18.10;99.90
36552;DHT22;22559;54.176;12.102;2023-08-06T07:10:30;18.20;99.90
36552;DHT22;22559;54.176;12.102;2023-08-06T07:12:56;18.10;99.90
36552;DHT22;22559;54.176;12.102;2023-08-06T07:15:22;18.20;99.90
36552;DHT22;22559;54.176;12.102;2023-08-06T07:17:47;18.20;99.90
36552;DHT22;22559;54.176;12.102;2023-08-06T07:20:13;18.20;99.90
36552;DHT22;22559;54.176;12.102;2023-08-06T07:22:38;18.30;99.90
36552;DHT22;22559;54.176;12.102;2023-08-06T07:25:04;18.30;99.90
36552;DHT22;22559;54.176;12.102;2023-08-06T07:27:30;18.40;99.90
36552;DHT22;22559;54.176;12.102;2023-08-06T07:29:55;18.50;99.90
36552;DHT22;22559;54.176;12.102;2023-08-06T07:32:21;18.50;99.90
36552;DHT22;22559;54.176;12.102;2023-08-06T07:34:47;18.50;99.90
36552;DHT22;22559;54.176;12.102;2023-08-06T07:37:12;18.60;99.90
36552;DHT22;22559;54.176;12.102;2023-08-06T07:39:38;18.60;99.90
36552;DHT22;22559;54.176;12.102;2023-08-06T07:42:05;18.60;99.90
36552;DHT22;22559;54.176;12.102;2023-08-06T07:44:32;18.70;99.90
36552;DHT22;22559;54.176;12.102;2023-08-06T07:46:58;18.70;99.90
36552;DHT22;22559;54.176;12.102;2023-08-06T07:49:23;18.70;99.90
36552;DHT22;22559;54.176;12.102;2023-08-06T07:51:49;18.80;99.90
36552;DHT22;22559;54.176;12.102;2023-08-06T07:54:17;18.90;99.90
36552;DHT22;22559;54.176;12.102;2023-08-06T07:56:42;18.90;99.90
36552;DHT22;22559;54.176;12.102;2023-08-06T07:59:08;18.90;99.90
36552;DHT22;22559;54.176;12.102;2023-08-06T08:01:34;18.90;99.90
36552;DHT22;22559;54.176;12.102;2023-08-06T08:04:00;19.00;99.90
36552;DHT22;22559;54.176;12.102;2023-08-06T08:06:25;19.10;99.90
36552;DHT22;22559;54.176;12.102;2023-08-06T08:08:51;19.10;99.90
36552;DHT22;22559;54.176;12.102;2023-08-06T08:11:17;19.20;99.90
36552;DHT22;22559;54.176;12.102;2023-08-06T08:13:44;19.20;99.90
36552;DHT22;22559;54.176;12.102;2023-08-06T08:16:09;19.20;99.90
36552;DHT22;22559;54.176;12.102;2023-08-06T08:18:35;19.30;99.90
36552;DHT22;22559;54.176;12.102;2023-08-06T08:21:01;19.30;99.90
36552;DHT22;22559;54.176;12.102;2023-08-06T08:23:27;19.20;99.90
36552;DHT22;22559;54.176;12.102;2023-08-06T08:25:52;19.20;99.90
36552;DHT22;22559;54.176;12.102;2023-08-06T08:28:18;19.30;99.90
36552;DHT22;22559;54.176;12.102;2023-08-06T08:30:44;19.30;99.90
36552;DHT22;22559;54.176;12.102;2023-08-06T08:33:09;19.20;99.90
36552;DHT22;22559;54.176;12.102;2023-08-06T08:35:36;19.40;99.90
36552;DHT22;22559;54.176;12.102;2023-08-06T08:38:02;19.40;99.90
36552;DHT22;22559;54.176;12.102;2023-08-06T08:40:31;19.40;99.90
36552;DHT22;22559;54.176;12.102;2023-08-06T08:42:58;19.40;99.90
36552;DHT22;22559;54.176;12.102;2023-08-06T08:45:26;19.50;99.90
36552;DHT22;22559;54.176;12.102;2023-08-06T08:47:53;19.50;99.90
36552;DHT22;22559;54.176;12.102;2023-08-06T08:50:20;19.40;99.90
36552;DHT22;22559;54.176;12.102;2023-08-06T08:52:46;19.50;99.90
36552;DHT22;22559;54.176;12.102;2023-08-06T08:55:15;19.50;99.90
36552;DHT22;22559;54.176;12.102;2023-08-06T08:57:41;19.60;99.90
36552;DHT22;22559;54.176;12.102;2023-08-06T09:00:07;19.60;99.90
36552;DHT22;22559;54.176;12.102;2023-08-06T09:02:33;19.70;99.90
36552;DHT22;22559;54.176;12.102;2023-08-06T09:05:00;19.80;99.90
36552;DHT22;22559;54.176;12.102;2023-08-06T09:07:33;19.80;99.90
36552;DHT22;22559;54.176;12.102;2023-08-06T09:10:02;19.80;99.90
36552;DHT22;22559;54.176;12.102;2023-08-06T09:12:29;19.70;99.90
36552;DHT22;22559;54.176;12.102;2023-08-06T09:14:54;19.60;99.90
36552;DHT22;22559;54.176;12.102;2023-08-06T09:17:20;19.60;99.90
36552;DHT22;22559;54.176;12.102;2023-08-06T09:19:46;19.60;99.90
36552;DHT22;22559;54.176;12.102;2023-08-06T09:22:13;19.70;99.90
36552;DHT22;22559;54.176;12.102;2023-08-06T09:24:41;19.80;99.90
36552;DHT22;22559;54.176;12.102;2023-08-06T09:27:14;19.90;99.90
36552;DHT22;22559;54.176;12.102;2023-08-06T09:29:44;19.90;99.90
36552;DHT22;22559;54.176;12.102;2023-08-06T09:32:11;20.00;99.90
36552;DHT22;22559;54.176;12.102;2023-08-06T09:34:39;20.00;99.90
36552;DHT22;22559;54.176;12.102;2023-08-06T09:37:06;20.00;99.90
36552;DHT22;22559;54.176;12.102;2023-08-06T09:39:33;20.00;99.90
36552;DHT22;22559;54.176;12.102;2023-08-06T09:42:00;20.00;99.90
36552;DHT22;22559;54.176;12.102;2023-08-06T09:44:28;20.00;99.90
36552;DHT22;22559;54.176;12.102;2023-08-06T09:47:01;20.00;99.90
36552;DHT22;22559;54.176;12.102;2023-08-06T09:49:40;20.10;99.90
36552;DHT22;22559;54.176;12.102;2023-08-06T09:52:10;20.10;99.90
36552;DHT22;22559;54.176;12.102;2023-08-06T09:54:37;20.20;99.90
36552;DHT22;22559;54.176;12.102;2023-08-06T09:57:03;20.30;99.90
36552;DHT22;22559;54.176;12.102;2023-08-06T09:59:32;20.30;99.90
36552;DHT22;22559;54.176;12.102;2023-08-06T10:01:58;20.30;99.90
36552;DHT22;22559;54.176;12.102;2023-08-06T10:04:24;20.40;99.90
36552;DHT22;22559;54.176;12.102;2023-08-06T10:06:50;20.40;99.90
36552;DHT22;22559;54.176;12.102;2023-08-06T10:09:16;20.40;99.90
36552;DHT22;22559;54.176;12.102;2023-08-06T10:11:43;20.50;99.90
36552;DHT22;22559;54.176;12.102;2023-08-06T10:14:18;20.40;99.90
36552;DHT22;22559;54.176;12.102;2023-08-06T10:16:45;20.40;99.90
36552;DHT22;22559;54.176;12.102;2023-08-06T10:19:12;20.30;99.90
36552;DHT22;22559;54.176;12.102;2023-08-06T10:21:39;20.30;99.90
36552;DHT22;22559;54.176;12.102;2023-08-06T10:24:08;20.40;99.90
36552;DHT22;22559;54.176;12.102;2023-08-06T10:26:37;20.50;99.90
36552;DHT22;22559;54.176;12.102;2023-08-06T10:29:35;20.50;99.90
36552;DHT22;22559;54.176;12.102;2023-08-06T10:32:01;20.40;99.90
36552;DHT22;22559;54.176;12.102;2023-08-06T10:34:54;20.40;99.90
36552;DHT22;22559;54.176;12.102;2023-08-06T10:37:23;20.40;99.90
36552;DHT22;22559;54.176;12.102;2023-08-06T10:39:53;20.30;99.90
36552;DHT22;22559;54.176;12.102;2023-08-06T10:42:29;20.30;99.90
36552;DHT22;22559;54.176;12.102;2023-08-06T10:45:14;20.40;99.90
36552;DHT22;22559;54.176;12.102;2023-08-06T10:47:41;20.40;99.90
36552;DHT22;22559;54.176;12.102;2023-08-06T10:50:10;20.30;99.90
36552;DHT22;22559;54.176;12.102;2023-08-06T10:52:36;20.50;99.90
36552;DHT22;22559;54.176;12.102;2023-08-06T10:55:02;20.50;99.90
36552;DHT22;22559;54.176;12.102;2023-08-06T10:57:27;20.50;99.90
36552;DHT22;22559;54.176;12.102;2023-08-06T10:59:53;20.50;99.90
36552;DHT22;22559;54.176;12.102;2023-08-06T11:02:18;20.60;99.90
36552;DHT22;22559;54.176;12.102;2023-08-06T11:04:44;20.60;99.90
36552;DHT22;22559;54.176;12.102;2023-08-06T11:07:10;20.50;99.90
36552;DHT22;22559;54.176;12.102;2023-08-06T11:09:36;20.60;99.90
36552;DHT22;22559;54.176;12.102;2023-08-06T11:12:02;20.40;99.90
36552;DHT22;22559;54.176;12.102;2023-08-06T11:14:32;20.50;99.90
36552;DHT22;22559;54.176;12.102;2023-08-06T11:16:57;20.60;99.90
36552;DHT22;22559;54.176;12.102;2023-08-06T11:19:23;20.50;99.90
36552;DHT22;22559;54.176;12.102;2023-08-06T11:21:51;20.50;99.90
36552;DHT22;22559;54.176;12.102;2023-08-06T11:24:17;20.60;99.90
36552;DHT22;22559;54.176;12.102;2023-08-06T11:26:43;20.70;99.90
36552;DHT22;22559;54.176;12.102;2023-08-06T11:29:10;20.80;99.90
36552;DHT22;22559;54.176;12.102;2023-08-06T11:31:36;20.90;99.90
36552;DHT22;22559;54.176;12.102;2023-08-06T11:34:02;21.00;99.90
36552;DHT22;22559;54.176;12.102;2023-08-06T11:36:32;20.80;99.90
36552;DHT22;22559;54.176;12.102;2023-08-06T11:38:59;21.00;99.90
36552;DHT22;22559;54.176;12.102;2023-08-06T11:41:28;21.10;99.90
36552;DHT22;22559;54.176;12.102;2023-08-06T11:43:54;21.20;99.90
36552;DHT22;22559;54.176;12.102;2023-08-06T11:46:19;21.30;99.90
36552;DHT22;22559;54.176;12.102;2023-08-06T11:48:55;21.30;99.90
36552;DHT22;22559;54.176;12.102;2023-08-06T11:51:25;21.20;99.90
36552;DHT22;22559;54.176;12.102;2023-08-06T11:53:57;21.10;99.90
36552;DHT22;22559;54.176;12.102;2023-08-06T11:56:24;21.10;99.90
36552;DHT22;22559;54.176;12.102;2023-08-06T11:58:51;21.10;99.90
36552;DHT22;22559;54.176;12.102;2023-08-06T12:01:16;21.10;99.90
36552;DHT22;22559;54.176;12.102;2023-08-06T12:03:43;21.10;99.90
36552;DHT22;22559;54.176;12.102;2023-08-06T12:06:08;21.20;99.90
36552;DHT22;22559;54.176;12.102;2023-08-06T12:08:34;21.20;99.90
36552;DHT22;22559;54.176;12.102;2023-08-06T12:11:00;21.00;99.90
36552;DHT22;22559;54.176;12.102;2023-08-06T12:13:25;20.90;99.90
36552;DHT22;22559;54.176;12.102;2023-08-06T12:15:51;20.90;99.90
36552;DHT22;22559;54.176;12.102;2023-08-06T12:18:20;20.90;99.90
36552;DHT22;22559;54.176;12.102;2023-08-06T12:20:45;21.00;99.90
36552;DHT22;22559;54.176;12.102;2023-08-06T12:23:11;21.00;99.90
36552;DHT22;22559;54.176;12.102;2023-08-06T12:25:41;20.90;99.90
36552;DHT22;22559;54.176;12.102;2023-08-06T12:28:07;20.90;99.90
36552;DHT22;22559;54.176;12.102;2023-08-06T12:30:34;20.90;99.90
36552;DHT22;22559;54.176;12.102;2023-08-06T12:32:59;20.90;99.90
36552;DHT22;22559;54.176;12.102;2023-08-06T12:35:25;20.90;99.90
36552;DHT22;22559;54.176;12.102;2023-08-06T12:37:51;20.70;99.90
36552;DHT22;22559;54.176;12.102;2023-08-06T12:40:26;20.70;99.90
36552;DHT22;22559;54.176;12.102;2023-08-06T12:42:51;20.60;99.90
36552;DHT22;22559;54.176;12.102;2023-08-06T12:45:17;20.60;99.90
36552;DHT22;22559;54.176;12.102;2023-08-06T12:47:46;20.60;99.90
36552;DHT22;22559;54.176;12.102;2023-08-06T12:50:12;20.60;99.90
36552;DHT22;22559;54.176;12.102;2023-08-06T12:52:38;20.70;99.90
36552;DHT22;22559;54.176;12.102;2023-08-06T12:55:04;20.80;99.90
36552;DHT22;22559;54.176;12.102;2023-08-06T12:57:29;20.60;99.90
36552;DHT22;22559;54.176;12.102;2023-08-06T12:59:56;20.40;99.90
36552;DHT22;22559;54.176;12.102;2023-08-06T13:02:21;20.40;99.90
36552;DHT22;22559;54.176;12.102;2023-08-06T13:04:47;20.30;99.90
36552;DHT22;22559;54.176;12.102;2023-08-06T13:07:13;20.40;99.90
36552;DHT22;22559;54.176;12.102;2023-08-06T13:09:38;20.40;99.90
36552;DHT22;22559;54.176;12.102;2023-08-06T13:12:04;20.30;99.90
36552;DHT22;22559;54.176;12.102;2023-08-06T13:14:31;20.30;99.90
36552;DHT22;22559;54.176;12.102;2023-08-06T13:16:57;20.30;99.90
36552;DHT22;22559;54.176;12.102;2023-08-06T13:19:22;20.30;99.90
36552;DHT22;22559;54.176;12.102;2023-08-06T13:24:15;20.40;99.90
36552;DHT22;22559;54.176;12.102;2023-08-06T13:26:41;20.30;99.90
36552;DHT22;22559;54.176;12.102;2023-08-06T13:29:06;20.20;99.90
36552;DHT22;22559;54.176;12.102;2023-08-06T13:31:32;20.10;99.90
36552;DHT22;22559;54.176;12.102;2023-08-06T13:33:58;20.10;99.90
36552;DHT22;22559;54.176;12.102;2023-08-06T13:36:27;20.10;99.90
36552;DHT22;22559;54.176;12.102;2023-08-06T13:38:53;19.90;99.90
36552;DHT22;22559;54.176;12.102;2023-08-06T13:41:19;20.00;99.90
36552;DHT22;22559;54.176;12.102;2023-08-06T13:43:45;19.80;99.90
36552;DHT22;22559;54.176;12.102;2023-08-06T13:46:11;19.90;99.90
36552;DHT22;22559;54.176;12.102;2023-08-06T13:48:46;19.80;99.90
36552;DHT22;22559;54.176;12.102;2023-08-06T13:51:12;19.80;99.90
36552;DHT22;22559;54.176;12.102;2023-08-06T13:53:44;19.90;99.90
36552;DHT22;22559;54.176;12.102;2023-08-06T13:56:10;19.80;99.90
36552;DHT22;22559;54.176;12.102;2023-08-06T13:58:40;19.60;99.90
36552;DHT22;22559;54.176;12.102;2023-08-06T14:01:05;19.60;99.90
36552;DHT22;22559;54.176;12.102;2023-08-06T14:03:31;19.60;99.90
36552;DHT22;22559;54.176;12.102;2023-08-06T14:05:57;19.60;99.90
36552;DHT22;22559;54.176;12.102;2023-08-06T14:08:23;19.40;99.90
36552;DHT22;22559;54.176;12.102;2023-08-06T14:10:50;19.40;99.90
36552;DHT22;22559;54.176;12.102;2023-08-06T14:13:16;19.20;99.90
36552;DHT22;22559;54.176;12.102;2023-08-06T14:15:42;19.20;99.90
36552;DHT22;22559;54.176;12.102;2023-08-06T14:18:12;19.10;99.90
36552;DHT22;22559;54.176;12.102;2023-08-06T14:20:38;19.00;99.90
36552;DHT22;22559;54.176;12.102;2023-08-06T14:23:04;19.00;99.90
36552;DHT22;22559;54.176;12.102;2023-08-06T14:25:29;18.90;99.90
36552;DHT22;22559;54.176;12.102;2023-08-06T14:27:55;18.90;99.90
36552;DHT22;22559;54.176;12.102;2023-08-06T14:30:21;18.80;99.90
36552;DHT22;22559;54.176;12.102;2023-08-06T14:32:46;18.70;99.90
36552;DHT22;22559;54.176;12.102;2023-08-06T14:35:12;18.60;99.90
36552;DHT22;22559;54.176;12.102;2023-08-06T14:37:38;18.50;99.90
36552;DHT22;22559;54.176;12.102;2023-08-06T14:40:05;18.50;99.90
36552;DHT22;22559;54.176;12.102;2023-08-06T14:42:31;18.60;99.90
36552;DHT22;22559;54.176;12.102;2023-08-06T14:44:56;18.50;99.90
36552;DHT22;22559;54.176;12.102;2023-08-06T14:47:22;18.50;99.90
36552;DHT22;22559;54.176;12.102;2023-08-06T14:49:48;18.50;99.90
36552;DHT22;22559;54.176;12.102;2023-08-06T14:52:14;18.40;99.90
36552;DHT22;22559;54.176;12.102;2023-08-06T14:54:40;18.50;99.90
36552;DHT22;22559;54.176;12.102;2023-08-06T14:57:06;18.40;99.90
36552;DHT22;22559;54.176;12.102;2023-08-06T14:59:32;18.40;99.90
36552;DHT22;22559;54.176;12.102;2023-08-06T15:01:58;18.40;99.90
36552;DHT22;22559;54.176;12.102;2023-08-06T15:04:24;18.30;99.90
36552;DHT22;22559;54.176;12.102;2023-08-06T15:06:49;18.30;99.90
36552;DHT22;22559;54.176;12.102;2023-08-06T15:09:15;18.20;99.90
36552;DHT22;22559;54.176;12.102;2023-08-06T15:11:40;18.20;99.90
36552;DHT22;22559;54.176;12.102;2023-08-06T15:14:06;18.10;99.90
36552;DHT22;22559;54.176;12.102;2023-08-06T15:16:33;18.00;99.90
36552;DHT22;22559;54.176;12.102;2023-08-06T15:19:00;18.00;99.90
36552;DHT22;22559;54.176;12.102;2023-08-06T15:21:25;18.10;99.90